createdAt,value
2023-05-04T00:01:25.631Z,97.22
2023-05-04T00:03:55.759Z,97.02
2023-05-04T00:06:24.282Z,96.49
2023-05-04T00:08:52.649Z,95.70
2023-05-04T00:11:21.252Z,93.65
2023-05-04T00:13:49.632Z,93.59
2023-05-04T00:16:18.078Z,93.13
2023-05-04T00:18:46.669Z,94.47
2023-05-04T00:21:15.059Z,94.42
2023-05-04T00:23:43.477Z,94.79
2023-05-04T00:26:12.097Z,94.43
2023-05-04T00:28:40.830Z,93.84
2023-05-04T00:31:09.198Z,94.01
2023-05-04T00:33:37.669Z,94.13
2023-05-04T00:36:06.200Z,93.25
2023-05-04T00:38:51.141Z,93.11
2023-05-04T00:41:20.731Z,92.01
2023-05-04T00:43:49.605Z,91.60
2023-05-04T00:46:18.767Z,91.86
2023-05-04T00:48:52.507Z,91.29
2023-05-04T00:51:23.088Z,90.37
2023-05-04T00:53:53.052Z,90.74
2023-05-04T00:56:24.920Z,90.13
2023-05-04T00:58:58.856Z,89.66
2023-05-04T01:01:27.273Z,89.09
2023-05-04T01:03:57.442Z,87.60
2023-05-04T01:07:02.751Z,87.26
2023-05-04T01:09:57.583Z,86.79
2023-05-04T01:12:37.863Z,86.26
2023-05-04T01:15:09.142Z,85.52
2023-05-04T01:17:37.810Z,84.79
2023-05-04T01:20:07.297Z,85.05
2023-05-04T01:22:37.019Z,85.20
2023-05-04T01:25:07.100Z,84.44
2023-05-04T01:27:44.401Z,84.35
2023-05-04T01:30:16.944Z,84.35
2023-05-04T01:32:46.960Z,84.68
2023-05-04T01:35:15.555Z,84.61
2023-05-04T01:37:43.959Z,84.67
2023-05-04T01:40:12.889Z,83.63
2023-05-04T01:42:41.294Z,83.94
2023-05-04T01:45:10.454Z,83.58
2023-05-04T01:47:38.866Z,82.45
2023-05-04T01:50:07.923Z,81.87
2023-05-04T01:52:36.558Z,81.35
2023-05-04T01:55:05.147Z,80.16
2023-05-04T01:57:33.535Z,79.89
2023-05-04T02:00:02.050Z,81.77
2023-05-04T02:02:30.917Z,79.70
2023-05-04T02:04:59.361Z,79.05
2023-05-04T02:07:27.758Z,78.80
2023-05-04T02:09:56.124Z,79.61
2023-05-04T02:12:24.498Z,78.80
2023-05-04T02:14:52.940Z,78.38
2023-05-04T02:17:21.397Z,77.22
2023-05-04T02:19:49.845Z,77.08
2023-05-04T02:22:18.315Z,75.63
2023-05-04T02:24:46.769Z,78.15
2023-05-04T02:27:15.141Z,75.33
2023-05-04T02:29:43.533Z,74.39
2023-05-04T02:32:11.935Z,75.57
2023-05-04T02:34:40.393Z,72.56
2023-05-04T02:37:08.801Z,75.43
2023-05-04T02:39:37.496Z,72.30
2023-05-04T02:42:05.948Z,75.36
2023-05-04T02:44:34.368Z,74.72
2023-05-04T02:47:03.313Z,74.59
2023-05-04T02:49:32.026Z,72.48
2023-05-04T02:52:00.467Z,70.42
2023-05-04T02:54:28.916Z,72.76
2023-05-04T02:56:57.296Z,71.82
2023-05-04T02:59:25.727Z,69.24
2023-05-04T03:01:54.224Z,69.69
2023-05-04T03:04:22.868Z,66.62
2023-05-04T03:06:51.323Z,69.58
2023-05-04T03:09:19.765Z,67.52
2023-05-04T03:11:48.149Z,66.69
2023-05-04T03:14:17.330Z,65.75
2023-05-04T03:16:45.781Z,65.97
2023-05-04T03:19:14.252Z,65.46
2023-05-04T03:21:42.650Z,67.97
2023-05-04T03:24:12.392Z,66.98
2023-05-04T03:26:40.861Z,63.90
2023-05-04T03:29:09.326Z,64.55
2023-05-04T03:31:38.255Z,65.03
2023-05-04T03:34:06.682Z,63.25
2023-05-04T03:36:35.070Z,62.22
2023-05-04T03:39:03.526Z,64.17
2023-05-04T03:41:31.943Z,61.63
2023-05-04T03:44:00.401Z,63.90
2023-05-04T03:46:28.865Z,63.24
2023-05-04T03:48:58.476Z,64.94
2023-05-04T03:51:27.135Z,66.68
2023-05-04T03:53:55.730Z,64.10
2023-05-04T03:56:24.123Z,62.18
2023-05-04T03:58:52.502Z,62.46
2023-05-04T04:01:20.967Z,62.69
2023-05-04T04:03:49.639Z,61.61
2023-05-04T04:06:18.401Z,64.92
2023-05-04T04:08:46.801Z,61.68
2023-05-04T04:11:15.255Z,64.56
2023-05-04T04:13:43.627Z,60.50
2023-05-04T04:16:12.446Z,61.62
2023-05-04T04:18:41.314Z,59.96
2023-05-04T04:21:11.402Z,63.97
2023-05-04T04:23:40.100Z,60.77
2023-05-04T04:26:08.520Z,63.77
2023-05-04T04:28:37.200Z,60.17
2023-05-04T04:31:05.625Z,60.11
2023-05-04T04:33:35.671Z,62.47
2023-05-04T04:36:04.101Z,57.07
2023-05-04T04:38:32.492Z,58.77
2023-05-04T04:41:00.903Z,59.65
2023-05-04T04:43:29.272Z,59.48
2023-05-04T04:45:58.019Z,53.48
2023-05-04T04:48:26.853Z,55.82
2023-05-04T04:50:55.638Z,58.82
2023-05-04T04:53:24.176Z,56.35
2023-05-04T04:55:53.214Z,56.19
2023-05-04T04:58:22.112Z,57.61
2023-05-04T05:00:53.058Z,55.33
2023-05-04T05:03:21.511Z,61.62
2023-05-04T05:05:49.918Z,58.76
2023-05-04T05:08:18.294Z,59.93
2023-05-04T05:10:46.701Z,59.54
2023-05-04T05:13:15.181Z,56.56
2023-05-04T05:15:43.726Z,60.64
2023-05-04T05:18:12.708Z,60.86
2023-05-04T05:20:41.118Z,54.47
2023-05-04T05:23:09.556Z,58.50
2023-05-04T05:25:39.467Z,56.57
2023-05-04T05:28:08.144Z,54.40
2023-05-04T05:30:36.613Z,53.90
2023-05-04T05:33:05.150Z,55.87
2023-05-04T05:35:33.607Z,55.81
2023-05-04T05:38:02.075Z,57.80
2023-05-04T05:40:30.915Z,60.94
2023-05-04T05:42:59.313Z,55.52
2023-05-04T05:45:27.800Z,58.79
2023-05-04T05:47:56.179Z,60.21
2023-05-04T05:50:25.146Z,59.24
2023-05-04T05:52:53.577Z,59.76
2023-05-04T05:55:21.962Z,59.70
2023-05-04T05:57:50.550Z,58.25
2023-05-04T06:00:19.637Z,59.78
2023-05-04T06:02:48.157Z,59.63
2023-05-04T06:05:16.662Z,61.56
2023-05-04T06:07:45.119Z,62.51
2023-05-04T06:10:13.511Z,60.53
2023-05-04T06:12:41.962Z,58.50
2023-05-04T06:15:10.702Z,59.68
2023-05-04T06:17:39.569Z,59.10
2023-05-04T06:20:09.192Z,59.77
2023-05-04T06:22:37.681Z,58.37
2023-05-04T06:25:08.254Z,54.78
2023-05-04T06:27:36.990Z,59.60
2023-05-04T06:30:06.529Z,58.66
2023-05-04T06:32:36.145Z,53.47
2023-05-04T06:35:04.631Z,55.64
2023-05-04T06:37:33.534Z,55.15
2023-05-04T06:40:01.945Z,55.86
2023-05-04T06:42:33.497Z,55.15
2023-05-04T06:45:01.953Z,53.95
2023-05-04T06:47:30.400Z,56.33
2023-05-04T06:49:58.879Z,54.32
2023-05-04T06:52:30.586Z,54.90
2023-05-04T06:55:00.650Z,54.89
2023-05-04T06:57:31.348Z,53.34
2023-05-04T06:59:59.827Z,55.44
2023-05-04T07:02:28.216Z,52.09
2023-05-04T07:04:58.112Z,53.07
2023-05-04T07:07:26.543Z,52.63
2023-05-04T07:09:55.213Z,56.71
2023-05-04T07:12:23.601Z,55.53
2023-05-04T07:14:51.976Z,55.43
2023-05-04T07:17:22.767Z,54.16
2023-05-04T07:19:53.241Z,57.32
2023-05-04T07:22:24.456Z,57.09
2023-05-04T07:24:53.059Z,55.91
2023-05-04T07:27:21.430Z,56.00
2023-05-04T07:29:51.761Z,54.14
2023-05-04T07:32:20.681Z,55.80
2023-05-04T07:34:49.110Z,56.32
2023-05-04T07:37:17.581Z,56.29
2023-05-04T07:39:46.084Z,54.99
2023-05-04T07:42:14.499Z,54.76
2023-05-04T07:44:43.171Z,55.72
2023-05-04T07:47:11.770Z,57.94
2023-05-04T07:49:40.148Z,58.70
2023-05-04T07:52:08.509Z,58.36
2023-05-04T07:54:37.469Z,58.60
2023-05-04T07:57:06.219Z,60.56
2023-05-04T07:59:34.899Z,58.59
2023-05-04T08:02:03.490Z,56.57
2023-05-04T08:04:31.949Z,57.46
2023-05-04T08:07:00.482Z,60.07
2023-05-04T08:09:28.848Z,58.47
2023-05-04T08:11:57.281Z,58.15
2023-05-04T08:14:25.699Z,56.97
2023-05-04T08:16:54.258Z,54.90
2023-05-04T08:19:24.068Z,57.30
2023-05-04T08:21:52.435Z,54.67
2023-05-04T08:24:20.937Z,56.67
2023-05-04T08:26:55.895Z,58.12
2023-05-04T08:29:28.446Z,57.06
2023-05-04T08:31:58.929Z,57.68
2023-05-04T08:34:28.536Z,59.93
2023-05-04T08:36:57.143Z,58.34
2023-05-04T08:39:25.552Z,57.82
2023-05-04T08:41:54.388Z,58.12
2023-05-04T08:44:23.418Z,57.70
2023-05-04T08:46:55.059Z,60.57
2023-05-04T08:49:24.779Z,61.94
2023-05-04T08:51:53.658Z,61.00
2023-05-04T08:54:23.564Z,60.41
2023-05-04T08:56:53.495Z,60.16
2023-05-04T08:59:24.175Z,59.38
2023-05-04T09:02:00.707Z,59.42
2023-05-04T09:04:29.869Z,61.50
2023-05-04T09:06:59.488Z,62.09
2023-05-04T09:09:30.246Z,60.44
2023-05-04T09:11:59.915Z,59.69
2023-05-04T09:14:35.561Z,59.90
2023-05-04T09:17:05.421Z,60.80
2023-05-04T09:19:36.960Z,62.33
2023-05-04T09:22:16.139Z,62.64
2023-05-04T09:24:45.277Z,59.21
2023-05-04T09:27:16.920Z,59.79
2023-05-04T09:29:46.026Z,63.20
2023-05-04T09:32:18.207Z,62.87
2023-05-04T09:34:50.786Z,62.42
2023-05-04T09:37:23.011Z,60.54
2023-05-04T09:39:56.482Z,60.51
2023-05-04T09:42:26.672Z,60.09
2023-05-04T09:45:12.009Z,59.98
2023-05-04T09:47:42.331Z,59.90
2023-05-04T09:50:26.496Z,60.58
2023-05-04T09:52:55.974Z,60.35
2023-05-04T09:55:25.864Z,59.63
2023-05-04T09:57:54.338Z,62.45
2023-05-04T10:00:22.905Z,61.85
2023-05-04T10:02:52.115Z,61.96
2023-05-04T10:05:22.658Z,60.09
2023-05-04T10:07:52.088Z,60.35
2023-05-04T10:10:20.500Z,59.37
2023-05-04T10:12:49.044Z,58.85
2023-05-04T10:15:18.665Z,57.52
2023-05-04T10:18:32.054Z,56.79
2023-05-04T10:21:19.098Z,60.15
2023-05-04T10:24:17.696Z,59.86
2023-05-04T10:27:00.695Z,59.39
2023-05-04T10:29:34.092Z,61.60
2023-05-04T10:32:03.265Z,60.05
2023-05-04T10:34:33.050Z,59.21
2023-05-04T10:37:02.760Z,58.73
2023-05-04T10:39:33.221Z,57.95
2023-05-04T10:42:02.548Z,58.17
2023-05-04T10:44:53.352Z,60.00
2023-05-04T10:47:35.517Z,57.91
2023-05-04T10:50:10.574Z,57.61
2023-05-04T10:52:52.030Z,58.82
2023-05-04T10:55:21.594Z,58.15
2023-05-04T10:57:57.973Z,57.54
2023-05-04T11:00:38.188Z,56.24
2023-05-04T11:03:10.571Z,57.95
2023-05-04T11:05:55.385Z,56.34
2023-05-04T11:08:26.578Z,56.89
2023-05-04T11:11:05.460Z,56.90
2023-05-04T11:13:48.092Z,57.50
2023-05-04T11:16:27.916Z,59.27
2023-05-04T11:18:56.555Z,60.06
2023-05-04T11:21:26.749Z,59.87
2023-05-04T11:23:59.255Z,61.37
2023-05-04T11:26:29.503Z,62.33
2023-05-04T11:28:58.194Z,62.92
2023-05-04T11:31:26.725Z,62.83
2023-05-04T11:33:56.228Z,62.02
2023-05-04T11:36:25.590Z,61.58
2023-05-04T11:38:58.623Z,61.48
2023-05-04T11:41:30.735Z,61.48
2023-05-04T11:44:01.369Z,61.56
2023-05-04T11:46:30.375Z,61.67
2023-05-04T11:49:00.170Z,60.85
2023-05-04T11:51:30.169Z,60.73
2023-05-04T11:54:01.092Z,59.74
2023-05-04T11:56:29.690Z,57.28
2023-05-04T11:59:08.388Z,57.44
2023-05-04T12:01:38.072Z,57.57
2023-05-04T12:04:07.525Z,57.15
2023-05-04T12:06:35.977Z,56.99
2023-05-04T12:09:09.627Z,56.58
2023-05-04T12:11:39.355Z,56.20
2023-05-04T12:14:14.709Z,56.43
2023-05-04T12:16:43.902Z,56.48
2023-05-04T12:19:16.933Z,56.82
2023-05-04T12:21:53.445Z,56.81
2023-05-04T12:24:26.236Z,57.73
2023-05-04T12:26:54.617Z,57.67
2023-05-04T12:29:23.148Z,59.62
2023-05-04T12:31:52.260Z,59.70
2023-05-04T12:34:20.647Z,61.58
2023-05-04T12:36:52.373Z,62.59
2023-05-04T12:39:20.827Z,62.22
2023-05-04T12:41:49.181Z,61.81
2023-05-04T12:44:18.107Z,63.89
2023-05-04T12:46:46.742Z,63.75
2023-05-04T12:49:15.706Z,63.15
2023-05-04T12:51:44.435Z,64.94
2023-05-04T12:54:12.821Z,64.80
2023-05-04T12:56:41.240Z,65.78
2023-05-04T12:59:09.613Z,65.62
2023-05-04T13:01:38.296Z,64.70
2023-05-04T13:04:06.941Z,65.54
2023-05-04T13:06:35.407Z,65.94
2023-05-04T13:09:06.703Z,66.41
2023-05-04T13:11:35.109Z,66.30
2023-05-04T13:14:03.729Z,65.98
2023-05-04T13:16:32.223Z,65.17
2023-05-04T13:19:00.771Z,64.47
2023-05-04T13:21:29.256Z,64.75
2023-05-04T13:23:58.555Z,67.54
2023-05-04T13:26:27.108Z,69.10
2023-05-04T13:28:55.521Z,68.70
2023-05-04T13:31:23.987Z,68.97
2023-05-04T13:33:52.486Z,70.92
2023-05-04T13:36:20.841Z,70.76
2023-05-04T13:38:49.265Z,71.77
2023-05-04T13:41:18.126Z,72.27
2023-05-04T13:43:46.572Z,72.44
2023-05-04T13:46:15.062Z,72.38
2023-05-04T13:48:43.467Z,71.97
2023-05-04T13:51:11.868Z,71.45
2023-05-04T13:53:40.251Z,72.25
2023-05-04T13:56:08.718Z,71.08
2023-05-04T13:58:37.313Z,72.28
2023-05-04T14:01:05.762Z,70.77
2023-05-04T14:03:34.261Z,70.47
2023-05-04T14:06:02.702Z,72.94
2023-05-04T14:08:31.128Z,75.22
2023-05-04T14:10:59.677Z,76.91
2023-05-04T14:13:28.581Z,75.61
2023-05-04T14:15:56.999Z,75.96
2023-05-04T14:18:25.962Z,75.62
2023-05-04T14:20:54.404Z,74.68
2023-05-04T14:23:22.811Z,74.85
2023-05-04T14:25:52.992Z,74.00
2023-05-04T14:28:21.388Z,74.46
2023-05-04T14:30:49.849Z,74.68
2023-05-04T14:33:18.317Z,72.83
2023-05-04T14:35:48.378Z,73.03
2023-05-04T14:38:17.098Z,72.29
2023-05-04T14:40:46.622Z,72.18
2023-05-04T14:43:16.780Z,72.60
2023-05-04T14:45:45.206Z,72.82
2023-05-04T14:48:13.739Z,74.88
2023-05-04T14:50:42.649Z,75.92
2023-05-04T14:53:11.480Z,76.68
2023-05-04T14:55:42.833Z,77.11
2023-05-04T14:58:11.597Z,78.19
2023-05-04T15:00:40.132Z,77.62
2023-05-04T15:03:08.894Z,77.50
2023-05-04T15:05:37.410Z,78.08
2023-05-04T15:08:06.018Z,78.15
2023-05-04T15:10:35.108Z,76.81
2023-05-04T15:13:04.539Z,75.48
2023-05-04T15:15:32.927Z,75.07
2023-05-04T15:18:01.446Z,75.43
2023-05-04T15:20:29.971Z,76.42
2023-05-04T15:22:58.340Z,75.81
2023-05-04T15:25:28.287Z,76.39
2023-05-04T15:27:56.682Z,76.07
2023-05-04T15:30:25.073Z,75.80
2023-05-04T15:32:53.833Z,74.96
2023-05-04T15:35:22.296Z,75.16
2023-05-04T15:37:50.720Z,76.49
2023-05-04T15:40:19.123Z,77.57
2023-05-04T15:42:47.671Z,76.82
2023-05-04T15:45:16.420Z,76.70
2023-05-04T15:47:46.239Z,74.64
2023-05-04T15:50:14.742Z,72.93
2023-05-04T15:52:43.147Z,73.72
2023-05-04T15:55:24.742Z,74.53
2023-05-04T15:57:54.840Z,74.23
2023-05-04T16:00:23.556Z,74.54
2023-05-04T16:02:52.185Z,76.40
2023-05-04T16:05:21.429Z,76.95
2023-05-04T16:07:49.819Z,76.71
2023-05-04T16:10:18.202Z,74.87
2023-05-04T16:12:46.739Z,74.09
2023-05-04T16:15:16.001Z,74.61
2023-05-04T16:17:44.416Z,75.21
2023-05-04T16:20:13.138Z,74.73
2023-05-04T16:22:41.497Z,78.29
2023-05-04T16:25:11.190Z,79.20
2023-05-04T16:27:40.551Z,79.02
2023-05-04T16:30:10.049Z,78.07
2023-05-04T16:32:39.092Z,78.76
2023-05-04T16:35:08.148Z,76.55
2023-05-04T16:37:38.385Z,77.86
2023-05-04T16:40:16.670Z,79.49
2023-05-04T16:42:45.846Z,80.92
2023-05-04T16:45:15.156Z,79.91
2023-05-04T16:47:45.067Z,81.27
2023-05-04T16:50:14.693Z,82.04
2023-05-04T16:52:43.629Z,83.08
2023-05-04T16:55:12.715Z,83.10
2023-05-04T16:57:41.325Z,82.10
2023-05-04T17:00:11.568Z,82.25
2023-05-04T17:02:40.070Z,80.69
2023-05-04T17:05:11.165Z,80.38
2023-05-04T17:07:40.683Z,80.75
2023-05-04T17:10:09.888Z,80.29
2023-05-04T17:12:38.372Z,82.91
2023-05-04T17:15:07.588Z,83.41
2023-05-04T17:17:36.338Z,83.80
2023-05-04T17:20:05.345Z,82.85
2023-05-04T17:22:34.234Z,83.13
2023-05-04T17:25:02.777Z,82.50
2023-05-04T17:27:31.326Z,83.67
2023-05-04T17:29:59.829Z,84.22
2023-05-04T17:32:28.552Z,83.53
2023-05-04T17:35:08.450Z,83.88
2023-05-04T17:37:44.701Z,80.47
2023-05-04T17:40:14.405Z,81.24
2023-05-04T17:42:42.778Z,81.45
2023-05-04T17:45:11.578Z,82.45
2023-05-04T17:47:40.095Z,82.89
2023-05-04T17:50:09.206Z,84.55
2023-05-04T17:52:38.288Z,84.45
2023-05-04T17:55:07.065Z,82.37
2023-05-04T17:57:35.508Z,81.79
2023-05-04T18:00:06.108Z,83.33
2023-05-04T18:02:35.134Z,83.07
2023-05-04T18:05:04.153Z,80.17
2023-05-04T18:07:32.520Z,80.42
2023-05-04T18:10:01.692Z,80.92
2023-05-04T18:12:30.202Z,82.13
2023-05-04T18:14:58.778Z,82.38
2023-05-04T18:17:28.249Z,82.29
2023-05-04T18:19:57.669Z,82.97
2023-05-04T18:22:26.204Z,82.51
2023-05-04T18:24:55.314Z,81.49
2023-05-04T18:27:23.826Z,78.60
2023-05-04T18:29:53.827Z,78.74
2023-05-04T18:32:22.234Z,77.62
2023-05-04T18:34:53.161Z,79.42
2023-05-04T18:37:22.613Z,79.88
2023-05-04T18:39:51.104Z,81.65
2023-05-04T18:42:19.600Z,81.11
2023-05-04T18:44:48.023Z,78.88
2023-05-04T18:47:16.618Z,77.60
2023-05-04T18:49:48.098Z,77.44
2023-05-04T18:52:16.564Z,78.92
2023-05-04T18:54:44.922Z,79.80
2023-05-04T18:57:13.999Z,77.59
2023-05-04T18:59:42.432Z,77.78
2023-05-04T19:02:10.815Z,77.17
2023-05-04T19:04:39.176Z,78.35
2023-05-04T19:07:07.616Z,79.39
2023-05-04T19:09:36.042Z,79.22
2023-05-04T19:12:04.992Z,78.58
2023-05-04T19:14:33.972Z,80.05
2023-05-04T19:17:03.229Z,79.80
2023-05-04T19:19:32.093Z,78.99
2023-05-04T19:22:00.719Z,79.45
2023-05-04T19:24:29.178Z,78.11
2023-05-04T19:26:58.353Z,78.39
2023-05-04T19:29:27.142Z,78.65
2023-05-04T19:31:55.569Z,78.88
2023-05-04T19:34:23.999Z,79.31
2023-05-04T19:36:52.618Z,77.48
2023-05-04T19:39:21.403Z,79.29
2023-05-04T19:41:49.900Z,77.71
2023-05-04T19:44:18.269Z,78.15
2023-05-04T19:46:48.229Z,78.35
2023-05-04T19:49:16.664Z,77.27
2023-05-04T19:51:45.884Z,76.96
2023-05-04T19:54:14.329Z,76.75
2023-05-04T19:56:42.714Z,75.93
2023-05-04T19:59:11.082Z,76.90
2023-05-04T20:01:39.488Z,75.43
2023-05-04T20:04:09.321Z,76.87
2023-05-04T20:06:38.201Z,76.60
2023-05-04T20:09:06.726Z,76.66
2023-05-04T20:11:36.879Z,76.17
2023-05-04T20:14:05.663Z,76.91
2023-05-04T20:16:34.162Z,77.02
2023-05-04T20:19:03.959Z,76.46
2023-05-04T20:21:33.237Z,75.22
2023-05-04T20:24:01.634Z,75.42
2023-05-04T20:26:30.010Z,75.37
2023-05-04T20:28:58.374Z,76.43
2023-05-04T20:31:27.916Z,76.47
2023-05-04T20:33:56.334Z,75.84
2023-05-04T20:36:24.773Z,75.43
2023-05-04T20:38:53.167Z,77.10
2023-05-04T20:41:22.658Z,76.08
2023-05-04T20:43:51.196Z,75.81
2023-05-04T20:46:19.584Z,75.15
2023-05-04T20:48:48.029Z,75.04
2023-05-04T20:51:16.479Z,75.80
2023-05-04T20:53:44.857Z,75.87
2023-05-04T20:56:13.345Z,75.85
2023-05-04T20:58:42.246Z,74.97
2023-05-04T21:01:10.753Z,75.61
2023-05-04T21:03:39.233Z,76.02
2023-05-04T21:06:07.802Z,74.58
2023-05-04T21:08:36.323Z,75.60
2023-05-04T21:11:04.885Z,75.89
2023-05-04T21:13:33.728Z,75.72
2023-05-04T21:16:02.525Z,76.01
2023-05-04T21:18:30.989Z,76.01
2023-05-04T21:20:59.574Z,75.36
2023-05-04T21:23:28.039Z,75.50
2023-05-04T21:26:07.113Z,75.50
2023-05-04T21:28:35.510Z,75.84
2023-05-04T21:31:09.117Z,77.30
2023-05-04T21:33:37.685Z,78.07
2023-05-04T21:36:15.613Z,75.25
2023-05-04T21:38:44.279Z,76.35
2023-05-04T21:41:17.747Z,77.05
2023-05-04T21:43:46.332Z,77.01
2023-05-04T21:46:14.830Z,76.91
2023-05-04T21:48:43.317Z,77.82
2023-05-04T21:51:11.750Z,76.78
2023-05-04T21:53:40.111Z,76.40
2023-05-04T21:56:09.923Z,77.63
2023-05-04T21:58:40.791Z,77.85
2023-05-04T22:01:09.899Z,76.52
2023-05-04T22:03:38.352Z,77.04
2023-05-04T22:06:07.451Z,79.49
2023-05-04T22:08:36.366Z,77.06
2023-05-04T22:11:05.162Z,78.58
2023-05-04T22:13:33.679Z,79.53
2023-05-04T22:16:02.165Z,80.47
2023-05-04T22:18:30.518Z,79.04
2023-05-04T22:20:58.891Z,81.72
2023-05-04T22:23:27.418Z,81.32
2023-05-04T22:25:55.804Z,81.75
2023-05-04T22:28:24.341Z,81.68
2023-05-04T22:30:52.894Z,81.93
2023-05-04T22:33:21.328Z,80.64
2023-05-04T22:35:49.769Z,80.54
2023-05-04T22:38:18.154Z,79.43
2023-05-04T22:40:46.517Z,78.54
2023-05-04T22:43:14.885Z,79.79
2023-05-04T22:45:43.329Z,78.71
2023-05-04T22:48:11.766Z,78.36
2023-05-04T22:50:40.131Z,78.84
2023-05-04T22:53:08.816Z,78.89
2023-05-04T22:55:37.546Z,78.97
2023-05-04T22:58:05.985Z,78.74
2023-05-04T23:00:34.392Z,78.24
2023-05-04T23:03:02.802Z,79.01
2023-05-04T23:05:31.257Z,79.51
2023-05-04T23:07:59.635Z,81.10
2023-05-04T23:10:27.990Z,80.58
2023-05-04T23:12:57.128Z,79.85
2023-05-04T23:15:26.095Z,81.25
2023-05-04T23:17:54.505Z,80.22
2023-05-04T23:20:23.242Z,79.20
2023-05-04T23:22:52.020Z,81.17
2023-05-04T23:25:20.485Z,82.24
2023-05-04T23:27:48.920Z,79.97
2023-05-04T23:30:17.386Z,80.16
2023-05-04T23:32:45.871Z,80.83
2023-05-04T23:35:14.807Z,79.66
2023-05-04T23:37:43.611Z,79.11
2023-05-04T23:40:12.277Z,79.11
2023-05-04T23:42:40.688Z,78.77
2023-05-04T23:45:10.001Z,78.80
2023-05-04T23:47:38.518Z,79.04
2023-05-04T23:50:07.707Z,78.37
2023-05-04T23:52:36.166Z,77.71
2023-05-04T23:55:04.951Z,78.00
2023-05-04T23:57:33.329Z,77.75
